Flight Track Log - Related Links

Times and Time Zones

All times are in EDT time to prevent confusion due to time zone crossing. See the PDT4314 flight status page for this flight to view local times or setup timezone preferences in your user account.

Time Position Orientation Groundspeed Altitude Reporting Facility
EDT Latitude Longitude Course Direction KTS MPH feet Rate Location/Type
Sun 07:09:00 PM 42.0261 -75.9200 180° South  Level Estimated
Sun 07:10:00 PM 41.9636 -75.9230 182° South  Level FlightAware Approximate
Sun 07:11:00 PM 41.9030 -75.9026 160° South  Level Estimated
Sun 07:12:00 PM 41.8408 -75.8943 174° South  Level FlightAware Approximate
Sun 07:13:00 PM 41.7802 -75.8736 159° South  Level Estimated
Sun 07:14:00 PM 41.7188 -75.8574 169° South  Level FlightAware Approximate
Sun 07:15:00 PM 41.6582 -75.8366 153° Southeast  Level Estimated
Sun 07:16:00 PM 41.5977 -75.8158 161° South  Level Estimated
Sun 07:17:00 PM 41.5378 -75.7918 163° South  Level FlightAware Approximate
Sun 07:18:00 PM 41.4779 -75.7677 163° South  Level FlightAware Approximate
Sun 07:19:00 PM 41.4173 -75.7474 162° South  Level Estimated
Sun 07:20:00 PM 41.3578 -75.7215 162° South  Level FlightAware Approximate
Sun 07:21:00 PM 41.2984 -75.6956 162° South  Level FlightAware Approximate
Sun 07:22:00 PM 41.2390 -75.6698 162° South  Level FlightAware Approximate
Sun 07:23:00 PM 41.1782 -75.6504 159° South  Level Estimated
Sun 07:24:00 PM 41.1174 -75.6309 163° South  Level Estimated
Sun 07:25:00 PM 41.0582 -75.6041 161° South  Level FlightAware Approximate
Sun 07:26:00 PM 40.9991 -75.5773 161° South  Level FlightAware Approximate
Sun 07:27:00 PM 40.9399 -75.5505 161° South  Level FlightAware Approximate
Sun 07:28:00 PM 40.8788 -75.5325 190° South  Level Estimated
Sun 07:29:00 PM 40.8164 -75.5272 176° South  Level FlightAware Approximate
Sun 07:30:00 PM 40.7540 -75.5218 176° South  Level FlightAware Approximate
Sun 07:31:00 PM 40.6916 -75.5164 176° South  Level FlightAware Approximate
Sun 07:32:00 PM 40.6311 -75.4958 187° South  Level Estimated
Sun 07:33:00 PM 40.5705 -75.4753 190° South  Level Estimated
Sun 07:33:24 PM 40.7500 -75.4667 143° Southeast 233 268 8,000  Level Philadelphia TRACON
Sun 07:33:36 PM 40.7333 -75.4667 180° South 233 268 8,000  Level Philadelphia TRACON
Sun 07:34:00 PM 40.5090 -75.4897 190° South  Level FlightAware Approximate
Sun 07:34:36 PM 40.6667 -75.4667 180° South 216 249 8,000  Level Philadelphia TRACON
Sun 07:35:00 PM 40.4474 -75.5041 190° South  Level FlightAware Approximate
Sun 07:35:37 PM 40.6167 -75.4833 194° South 220 253 7,900  Level Philadelphia TRACON
Sun 07:36:00 PM 40.3884 -75.4768 143° Southeast  Level Estimated
Sun 07:36:37 PM 40.5500 -75.5000 191° South 219 252 6,400  Level Philadelphia TRACON
Sun 07:37:00 PM 40.3294 -75.4497 143° Southeast  Level Estimated
Sun 07:37:37 PM 40.5000 -75.5000 180° South 214 246 5,000  Level Philadelphia TRACON
Sun 07:38:00 PM 40.2704 -75.4225 143° Southeast  Level Estimated
Sun 07:38:37 PM 40.4333 -75.4667 159° South 221 254 4,900  Level Philadelphia TRACON
Sun 07:39:37 PM 40.3833 -75.4333 153° Southeast 225 259 4,900  Level Philadelphia TRACON
Sun 07:40:37 PM 40.3167 -75.4000 159° South 218 251 4,900  Level Philadelphia TRACON
Sun 07:41:37 PM 40.2667 -75.3667 153° Southeast 215 247 4,900 -500 Level Philadelphia TRACON
Sun 07:42:37 PM 40.2167 -75.3333 153° Southeast 226 260 3,900 -500 Descending Philadelphia TRACON
Sun 07:43:37 PM 40.1667 -75.2833 143° Southeast 205 236 3,900  Level Philadelphia TRACON
Sun 07:44:37 PM 40.1167 -75.2333 143° Southeast 226 260 3,900  Level Philadelphia TRACON
Sun 07:45:37 PM 40.0667 -75.2000 153° Southeast 215 247 3,900  Level Philadelphia TRACON
Sun 07:46:37 PM 40.0000 -75.1833 169° South 214 246 3,900  Level Philadelphia TRACON
Sun 07:47:37 PM 39.9500 -75.1500 153° Southeast 217 250 3,900  Level Philadelphia TRACON
Sun 07:48:32 PM 39.9000 -75.1333 166° South 216 249 3,900  Level Philadelphia TRACON
Sun 07:49:32 PM 39.8500 -75.1000 153° Southeast 206 237 3,900 -190 Level Philadelphia TRACON
Sun 07:50:38 PM 39.7833 -75.0833 169° South 203 234 3,500 -762 Descending Philadelphia TRACON
Sun 07:51:38 PM 39.7333 -75.0833 180° South 194 223 2,300 -842 Descending Philadelphia TRACON
Sun 07:52:32 PM 39.7333 -75.1500 270° West 183 211 1,900 -158 Descending Philadelphia TRACON
Sun 07:53:32 PM 39.7833 -75.1833 333° Northwest 188 216 2,000  Climbing Philadelphia TRACON
Sun 07:54:32 PM 39.8000 -75.1333 67° East 203 234 1,900 -50 Descending Philadelphia TRACON
Sun 07:55:32 PM 39.7500 -75.1167 166° South 188 216 1,900 50 Level Philadelphia TRACON
Sun 07:56:32 PM 39.7667 -75.1667 293° West 189 217 2,000 -450 Climbing Philadelphia TRACON
Sun 07:57:32 PM 39.8167 -75.2000 333° Northwest 181 208 1,000 -714 Descending Philadelphia TRACON
Sun 07:58:38 PM 39.8500 -75.2167 339° North 97 112 500 -455 Descending Philadelphia TRACON

Login

Don't have an account? Register now (free) for customized features, flight alerts, and more!